Time;durP1;ratioP1;P1;durP2;ratioP2;P2;SDS_P1;SDS_P2;PMS_P1;PMS_P2;Temp;Humidity;BMP_temperature;BMP_pressure;BME280_temperature;BME280_humidity;BME280_pressure;Samples;Min_cycle;Max_cycle;Signal;HPM_P1;HPM_P2
2023/10/11 00:02:15;;;;;;;;;;;;;;;16.26;85.31;100838.56;5027118;28;20053;-85
2023/10/11 00:04:42;;;;;;;15.02;6.47;;;;;;;16.15;85.40;100825.84;5027240;28;19969;-85
2023/10/11 00:07:20;;;;;;;15.20;6.53;;;;;;;16.22;85.49;100842.56;5027479;28;20487;-84
2023/10/11 00:09:51;;;;;;;9.82;6.63;;;;;;;16.21;85.56;100840.13;5021300;28;20050;-85
2023/10/11 00:12:22;;;;;;;12.18;6.93;;;;;;;16.15;85.72;100828.50;5027083;28;20112;-85
2023/10/11 00:14:50;;;;;;;11.90;6.50;;;;;;;16.08;85.81;100816.22;5026733;28;20046;-85
2023/10/11 00:17:17;;;;;;;12.00;6.50;;;;;;;16.09;86.01;100826.59;5019339;28;20062;-84
2023/10/11 00:19:45;;;;;;;13.82;6.78;;;;;;;16.15;85.98;100828.50;5026443;28;20054;-85
2023/10/11 00:22:25;;;;;;;13.70;6.57;;;;;;;16.06;86.21;100802.41;5028047;28;20068;-83
2023/10/11 00:24:52;;;;;;;10.88;7.20;;;;;;;16.17;86.23;100818.56;5029404;28;20428;-83
2023/10/11 00:27:21;;;;;;;14.55;7.00;;;;;;;16.13;85.95;100809.38;5032072;28;20053;-83
2023/10/11 00:29:48;;;;;;;13.45;6.60;;;;;;;16.17;86.32;100825.66;5031660;28;20103;-85
2023/10/11 00:32:16;;;;;;;10.48;6.95;;;;;;;16.16;86.14;100818.75;5028486;28;20050;-85
2023/10/11 00:34:43;;;;;;;12.10;6.70;;;;;;;16.21;86.02;100825.09;5028637;28;20560;-84
2023/10/11 00:37:15;;;;;;;14.23;6.43;;;;;;;16.11;86.35;100814.03;5026231;28;20061;-86
2023/10/11 00:39:44;;;;;;;12.23;6.68;;;;;;;15.99;86.53;100807.63;5020510;28;20060;-86
2023/10/11 00:42:32;;;;;;;14.15;6.75;;;;;;;16.06;86.61;100832.28;5027580;28;20049;-84
2023/10/11 00:45:07;;;;;;;14.48;6.72;;;;;;;15.98;86.82;100808.63;5027148;28;20114;-84
2023/10/11 00:47:40;;;;;;;11.55;6.20;;;;;;;15.95;86.74;100805.53;5027276;28;20054;-85
2023/10/11 00:50:14;;;;;;;15.50;6.70;;;;;;;16.08;86.40;100806.47;5027189;28;20050;-85
2023/10/11 00:52:41;;;;;;;11.93;6.50;;;;;;;16.09;86.40;100809.94;5019277;28;20081;-85
2023/10/11 00:55:16;;;;;;;13.65;6.75;;;;;;;16.16;86.29;100816.91;5027410;28;20077;-85
2023/10/11 00:57:45;;;;;;;18.27;7.13;;;;;;;16.14;86.41;100824.22;5025862;28;20081;-84
2023/10/11 01:00:15;;;;;;;14.90;6.68;;;;;;;16.08;86.61;100824.13;5025958;28;20077;-84
2023/10/11 01:02:44;;;;;;;12.50;6.50;;;;;;;16.04;86.68;100831.66;5026626;28;20073;-85
2023/10/11 01:05:12;;;;;;;12.32;6.63;;;;;;;15.86;87.24;100818.84;5024789;28;20057;-84
2023/10/11 01:07:38;;;;;;;11.27;7.35;;;;;;;15.89;87.51;100831.69;5026132;28;20500;-84
2023/10/11 01:10:06;;;;;;;12.65;6.88;;;;;;;15.76;87.77;100831.50;5026266;28;20080;-86
2023/10/11 01:12:36;;;;;;;11.52;6.65;;;;;;;15.70;88.65;100826.97;5026566;28;20054;-85
2023/10/11 01:15:11;;;;;;;12.95;6.78;;;;;;;15.68;88.69;100820.25;5017982;28;20065;-86
2023/10/11 01:17:38;;;;;;;13.98;6.88;;;;;;;15.59;89.18;100824.81;5014396;28;20088;-84
2023/10/11 01:20:08;;;;;;;11.07;6.93;;;;;;;15.50;89.43;100826.72;5009816;28;20113;-82
2023/10/11 01:22:36;;;;;;;12.73;7.40;;;;;;;15.45;89.78;100813.25;5021388;28;20054;-83
2023/10/11 01:25:05;;;;;;;13.15;6.95;;;;;;;15.35;90.35;100815.34;5021718;28;20117;-84
2023/10/11 01:27:31;;;;;;;12.75;6.95;;;;;;;15.28;90.91;100817.06;5022104;28;20050;-84
2023/10/11 01:29:57;;;;;;;12.35;7.43;;;;;;;15.19;91.47;100818.16;5022391;28;20077;-84
2023/10/11 01:32:24;;;;;;;10.70;6.88;;;;;;;15.07;91.96;100798.53;5021417;28;20057;-84
2023/10/11 01:34:51;;;;;;;13.25;7.40;;;;;;;15.01;92.31;100796.63;5021651;28;20104;-85
2023/10/11 01:37:18;;;;;;;12.68;6.45;;;;;;;15.07;92.29;100799.34;5020471;28;20050;-83
2023/10/11 01:39:49;;;;;;;12.95;7.03;;;;;;;15.07;92.13;100793.28;5020410;28;20113;-84
2023/10/11 01:42:15;;;;;;;14.55;7.43;;;;;;;15.13;92.04;100781.97;5018933;28;20088;-84
2023/10/11 01:44:42;;;;;;;14.23;7.22;;;;;;;15.13;91.78;100784.59;5018230;28;20081;-84
2023/10/11 01:47:10;;;;;;;14.82;6.93;;;;;;;15.10;91.75;100779.72;5025327;28;20049;-85
2023/10/11 01:49:39;;;;;;;13.88;7.28;;;;;;;15.08;91.88;100777.28;5013051;28;20133;-85
2023/10/11 01:52:08;;;;;;;14.65;7.55;;;;;;;15.01;91.99;100779.00;5020924;28;20465;-84
2023/10/11 01:54:34;;;;;;;15.50;7.57;;;;;;;14.97;92.00;100766.34;5021085;28;20058;-85
2023/10/11 01:57:03;;;;;;;11.30;7.50;;;;;;;15.03;92.43;100763.00;5020432;28;20054;-84
2023/10/11 01:59:30;;;;;;;14.40;6.82;;;;;;;14.89;92.10;100760.19;5022008;28;20115;-83
2023/10/11 02:02:02;;;;;;;17.35;7.40;;;;;;;15.13;91.77;100776.69;5021054;28;20068;-82
2023/10/11 02:04:30;;;;;;;13.50;7.18;;;;;;;15.04;91.71;100762.00;5022319;28;20485;-84
2023/10/11 02:06:58;;;;;;;15.75;7.38;;;;;;;15.00;91.83;100766.00;5021123;28;20054;-84
2023/10/11 02:09:24;;;;;;;12.15;7.53;;;;;;;15.13;91.38;100755.63;5021250;28;20045;-85
2023/10/11 02:11:53;;;;;;;19.30;8.20;;;;;;;15.17;91.55;100770.06;5021283;28;20092;-84
2023/10/11 02:14:22;;;;;;;19.77;7.40;;;;;;;15.39;90.89;100765.69;5013126;28;20060;-84
2023/10/11 02:16:49;;;;;;;16.20;6.90;;;;;;;15.48;90.46;100761.97;5013610;28;20073;-84
2023/10/11 02:19:18;;;;;;;13.45;6.63;;;;;;;15.36;90.07;100756.34;5021520;28;20045;-84
2023/10/11 02:21:45;;;;;;;13.88;7.38;;;;;;;15.25;90.57;100764.72;5022005;28;20112;-84
2023/10/11 02:24:14;;;;;;;15.52;7.28;;;;;;;15.16;90.98;100769.25;5020923;28;20053;-83
2023/10/11 02:26:49;;;;;;;16.05;7.63;;;;;;;14.93;91.16;100761.44;5021185;28;20041;-84
2023/10/11 02:29:20;;;;;;;17.90;8.23;;;;;;;15.01;91.63;100772.91;5021706;28;20062;-84
2023/10/11 02:31:51;;;;;;;19.92;9.60;;;;;;;14.97;91.65;100764.53;5021405;28;20057;-84
2023/10/11 02:34:19;;;;;;;18.52;9.60;;;;;;;14.94;91.76;100763.09;5022139;28;20056;-84
2023/10/11 02:36:56;;;;;;;20.65;9.98;;;;;;;14.86;92.28;100768.44;5022245;28;20049;-84
2023/10/11 02:39:31;;;;;;;23.35;10.30;;;;;;;14.83;92.21;100768.78;5021999;28;20074;-85
2023/10/11 02:41:58;;;;;;;19.73;8.68;;;;;;;14.81;92.11;100762.06;5025233;28;20050;-82
2023/10/11 02:44:25;;;;;;;20.20;9.77;;;;;;;14.84;92.39;100767.78;5030532;28;20077;-83
2023/10/11 02:46:53;;;;;;;18.92;8.50;;;;;;;14.88;92.22;100774.34;5026966;28;20050;-85
2023/10/11 02:49:21;;;;;;;15.55;8.27;;;;;;;14.81;92.22;100768.16;5024999;28;20100;-85
2023/10/11 02:51:55;;;;;;;17.88;8.27;;;;;;;14.80;92.44;100771.78;5025947;28;20053;-84
2023/10/11 02:54:24;;;;;;;16.40;7.50;;;;;;;14.81;92.22;100765.53;5025823;28;20045;-83
2023/10/11 02:56:52;;;;;;;12.73;7.35;;;;;;;14.76;92.33;100762.59;5025456;28;20128;-84
2023/10/11 02:59:23;;;;;;;14.02;7.40;;;;;;;14.80;92.21;100774.41;5026258;28;20512;-83
2023/10/11 03:01:59;;;;;;;14.88;7.47;;;;;;;14.80;92.34;100769.16;5029312;28;20077;-84
2023/10/11 03:04:29;;;;;;;14.88;7.38;;;;;;;14.71;92.54;100767.59;5028838;28;20085;-84
2023/10/11 03:06:56;;;;;;;16.88;7.40;;;;;;;14.69;92.69;100779.31;5027816;28;20034;-83
2023/10/11 03:09:26;;;;;;;14.25;7.45;;;;;;;14.65;92.82;100775.41;5028284;28;20077;-85
2023/10/11 03:11:56;;;;;;;12.73;7.43;;;;;;;14.65;93.05;100773.56;5028210;28;20096;-84
2023/10/11 03:14:23;;;;;;;16.00;8.00;;;;;;;14.65;92.74;100778.84;5021652;28;20057;-84
2023/10/11 03:16:56;;;;;;;16.38;7.97;;;;;;;14.62;93.13;100773.13;5030570;28;20077;-83
2023/10/11 03:19:23;;;;;;;12.77;7.45;;;;;;;14.55;93.49;100762.50;5029140;28;20065;-84
2023/10/11 03:21:53;;;;;;;13.57;7.75;;;;;;;14.49;94.22;100760.56;5025333;28;20251;-84
2023/10/11 03:24:21;;;;;;;18.48;8.07;;;;;;;14.48;94.71;100757.13;5027044;28;20057;-83
2023/10/11 03:26:48;;;;;;;16.48;8.20;;;;;;;14.48;95.12;100761.56;5023857;28;20496;-83
2023/10/11 03:29:19;;;;;;;19.83;8.32;;;;;;;14.45;95.46;100772.47;5023258;28;20491;-83
2023/10/11 03:31:48;;;;;;;;;;;;;;;14.40;95.97;100770.31;5024200;28;20076;-84
2023/10/11 03:34:17;;;;;;;16.23;8.65;;;;;;;14.41;96.01;100766.72;5023986;28;19971;-84
2023/10/11 03:36:49;;;;;;;17.70;7.68;;;;;;;14.38;96.04;100768.88;5023665;28;20106;-85
2023/10/11 03:39:39;;;;;;;16.90;8.15;;;;;;;14.31;96.16;100771.38;5023816;28;20054;-84
2023/10/11 03:42:12;;;;;;;16.40;8.07;;;;;;;14.29;96.43;100768.09;5023004;28;20053;-83
2023/10/11 03:44:40;;;;;;;15.98;8.02;;;;;;;14.27;96.32;100767.47;5015883;28;20064;-85
2023/10/11 03:47:08;;;;;;;13.10;7.93;;;;;;;14.21;96.60;100761.09;5023386;28;20049;-84
2023/10/11 03:49:49;;;;;;;12.85;7.05;;;;;;;14.24;96.39;100760.72;5023132;28;20057;-84
2023/10/11 03:52:19;;;;;;;15.45;7.45;;;;;;;14.17;96.55;100759.00;5023258;28;20069;-84
2023/10/11 03:54:50;;;;;;;16.13;8.63;;;;;;;14.08;96.99;100766.13;5022882;28;20050;-84
2023/10/11 03:57:17;;;;;;;17.85;8.05;;;;;;;14.01;97.05;100762.56;5022570;28;20046;-85
2023/10/11 03:59:48;;;;;;;18.67;9.13;;;;;;;14.02;97.02;100766.03;5070791;23;20139;-77
2023/10/11 04:02:17;;;;;;;20.08;8.35;;;;;;;14.10;97.00;100753.63;5058546;28;20094;-77
2023/10/11 04:04:48;;;;;;;14.45;7.60;;;;;;;14.14;96.22;100754.91;5052900;28;20084;-77
2023/10/11 04:07:16;;;;;;;13.50;7.95;;;;;;;14.17;96.03;100748.47;5055467;28;20512;-77
2023/10/11 04:09:44;;;;;;;18.52;8.30;;;;;;;14.12;96.03;100746.38;5040288;28;20049;-78
2023/10/11 04:12:13;;;;;;;17.83;8.27;;;;;;;14.05;96.14;100744.63;5043448;28;20613;-77
2023/10/11 04:14:43;;;;;;;13.88;7.95;;;;;;;13.95;96.40;100740.41;5029305;28;20471;-77
2023/10/11 04:17:14;;;;;;;19.00;7.93;;;;;;;13.93;96.34;100737.13;5028694;28;20078;-77
2023/10/11 04:19:41;;;;;;;10.40;7.38;;;;;;;13.94;96.46;100740.59;5029507;28;20057;-77
2023/10/11 04:22:16;;;;;;;14.32;7.95;;;;;;;13.94;96.12;100732.69;5020604;28;20373;-78
2023/10/11 04:24:44;;;;;;;17.92;7.68;;;;;;;13.91;95.66;100733.03;5029679;28;20068;-77
2023/10/11 04:30:17;;;;;;;12.00;7.97;;;;;;;13.88;95.63;100738.66;5027149;28;20045;-78
2023/10/11 04:32:45;;;;;;;14.05;7.45;;;;;;;13.79;95.70;100737.06;5032997;28;20049;-77
2023/10/11 04:35:21;;;;;;;19.20;8.13;;;;;;;13.94;95.18;100736.13;5032695;28;20545;-77
2023/10/11 04:37:54;;;;;;;12.50;7.80;;;;;;;13.91;94.85;100725.97;5031895;28;20052;-78
2023/10/11 04:40:34;;;;;;;18.27;7.40;;;;;;;14.01;94.26;100732.81;5039416;28;20140;-77
2023/10/11 04:43:06;;;;;;;15.50;7.80;;;;;;;14.03;93.98;100742.16;5012429;28;20112;-77
2023/10/11 04:45:43;;;;;;;12.75;7.20;;;;;;;13.97;93.92;100737.59;5031702;28;20415;-77
2023/10/11 04:48:14;;;;;;;14.85;8.07;;;;;;;13.99;93.75;100745.31;5032070;28;20056;-77
2023/10/11 04:50:44;;;;;;;14.57;7.53;;;;;;;14.28;92.38;100727.81;5028914;28;20068;-77
2023/10/11 04:53:17;;;;;;;17.95;7.00;;;;;;;14.35;91.53;100721.84;5035377;28;20046;-77
2023/10/11 04:55:46;;;;;;;17.88;7.32;;;;;;;14.46;90.87;100721.44;5032020;28;20088;-78
2023/10/11 04:58:23;;;;;;;13.88;7.50;;;;;;;14.53;90.61;100727.63;5031941;28;20049;-78
2023/10/11 05:01:01;;;;;;;18.90;7.55;;;;;;;14.80;89.93;100719.09;5032803;28;20132;-77
2023/10/11 05:03:30;;;;;;;16.98;8.30;;;;;;;14.93;89.19;100714.03;5030503;28;20538;-78
2023/10/11 05:05:59;;;;;;;14.32;7.55;;;;;;;14.97;89.04;100726.84;5026976;28;20046;-78
2023/10/11 05:08:51;;;;;;;17.08;7.70;;;;;;;14.93;88.91;100740.38;5031318;28;20480;-77
2023/10/11 05:11:31;;;;;;;11.27;6.68;;;;;;;14.87;89.27;100743.72;5031338;28;20500;-77
2023/10/11 05:14:10;;;;;;;14.75;7.15;;;;;;;14.83;89.47;100739.81;5032879;28;20050;-78
2023/10/11 05:16:44;;;;;;;14.75;7.57;;;;;;;14.86;89.53;100747.38;5033238;28;20491;-77
2023/10/11 05:19:14;;;;;;;13.43;7.60;;;;;;;14.85;89.87;100745.72;5032093;28;20058;-78
2023/10/11 05:21:43;;;;;;;16.90;7.75;;;;;;;14.69;90.24;100763.50;5024059;28;20068;-77
2023/10/11 05:24:29;;;;;;;17.65;7.50;;;;;;;14.62;90.50;100763.44;5034223;28;20057;-78
2023/10/11 05:27:04;;;;;;;11.48;7.20;;;;;;;14.50;91.04;100762.22;5031898;28;20448;-78
2023/10/11 05:29:36;;;;;;;13.85;7.05;;;;;;;14.49;91.15;100760.56;5033761;28;20077;-78
2023/10/11 05:32:20;;;;;;;13.52;7.88;;;;;;;14.52;90.80;100747.88;5043317;28;20053;-78
2023/10/11 05:34:50;;;;;;;12.52;7.35;;;;;;;14.53;90.71;100749.50;5024290;28;20116;-78
2023/10/11 05:51:11;;;;;;;16.33;8.00;;;;;;;14.33;92.07;100779.09;5009319;28;20057;-78
2023/10/11 05:53:40;;;;;;;16.58;8.63;;;;;;;14.23;93.28;100774.06;5023626;28;20049;-78
2023/10/11 05:56:09;;;;;;;20.73;8.20;;;;;;;14.19;94.12;100778.88;5030444;28;20076;-78
2023/10/11 05:58:36;;;;;;;17.40;8.98;;;;;;;14.10;95.03;100773.88;5030703;28;20056;-78
2023/10/11 06:01:08;;;;;;;13.88;8.15;;;;;;;14.08;95.82;100786.38;5030812;28;20137;-78
2023/10/11 06:03:35;;;;;;;17.30;8.50;;;;;;;14.06;96.26;100793.63;5027982;28;20132;-78
2023/10/11 06:06:13;;;;;;;21.63;8.63;;;;;;;14.04;96.56;100796.44;5033833;28;20418;-77
2023/10/11 06:08:39;;;;;;;24.88;9.35;;;;;;;14.06;96.83;100783.91;5023437;28;20050;-78
2023/10/11 06:11:08;;;;;;;16.80;9.63;;;;;;;14.08;97.34;100795.09;5031170;28;20093;-78
2023/10/11 06:13:36;;;;;;;20.13;8.63;;;;;;;14.08;97.46;100781.09;5033803;28;20140;-78
2023/10/11 06:16:07;;;;;;;16.48;8.98;;;;;;;14.12;97.54;100785.03;5020618;28;20136;-78
2023/10/11 06:18:55;;;;;;;20.08;8.75;;;;;;;14.23;97.38;100774.06;5041172;28;20492;-78
2023/10/11 06:21:32;;;;;;;18.00;8.55;;;;;;;14.25;97.14;100783.44;5032287;28;20046;-78
2023/10/11 06:23:59;;;;;;;17.50;8.90;;;;;;;14.27;97.02;100784.06;5030711;28;20045;-78
2023/10/11 06:26:52;;;;;;;19.40;8.98;;;;;;;14.33;97.02;100777.28;5033392;28;20045;-78
2023/10/11 06:29:17;;;;;;;17.90;8.43;;;;;;;14.60;96.00;100768.88;5037292;28;20478;-78
2023/10/11 06:31:45;;;;;;;13.43;8.07;;;;;;;14.83;95.04;100768.78;5036729;28;20077;-78
2023/10/11 06:34:17;;;;;;;15.05;8.60;;;;;;;14.95;93.90;100750.72;5013135;28;20061;-77
2023/10/11 06:36:48;;;;;;;18.23;8.63;;;;;;;15.30;92.95;100766.78;5035221;28;20049;-77
2023/10/11 06:39:33;;;;;;;17.55;9.13;;;;;;;15.37;91.44;100757.16;5045396;28;20056;-79
2023/10/11 06:42:06;;;;;;;17.05;8.93;;;;;;;15.67;90.39;100752.66;5029762;28;20113;-77
2023/10/11 06:44:33;;;;;;;17.48;8.77;;;;;;;16.18;89.28;100756.84;5029302;28;20146;-78
2023/10/11 06:47:03;;;;;;;15.52;7.97;;;;;;;16.24;87.86;100755.25;5043563;28;20045;-79
2023/10/11 06:49:40;;;;;;;13.25;8.27;;;;;;;16.14;87.51;100755.56;5017164;28;20050;-79
2023/10/11 06:52:07;;;;;;;15.18;8.00;;;;;;;16.62;86.26;100747.84;5037585;28;20453;-76
2023/10/11 06:54:33;;;;;;;12.02;8.00;;;;;;;16.71;85.79;100751.19;5040075;28;20217;-79
2023/10/11 06:57:01;;;;;;;21.17;9.00;;;;;;;16.52;84.99;100742.09;5030554;28;20132;-77
2023/10/11 06:59:28;;;;;;;16.63;8.43;;;;;;;16.16;85.76;100747.47;5013970;28;20057;-77
2023/10/11 07:01:55;;;;;;;14.15;8.20;;;;;;;15.96;86.79;100757.03;5013997;28;20496;-76
2023/10/11 07:04:24;;;;;;;16.95;9.05;;;;;;;16.14;86.86;100766.13;5014298;28;20061;-78
2023/10/11 07:06:50;;;;;;;17.08;8.40;;;;;;;16.50;85.86;100762.59;5030752;28;20049;-77
2023/10/11 07:09:22;;;;;;;18.40;9.50;;;;;;;16.59;84.76;100754.31;5031711;28;20111;-77
2023/10/11 07:11:52;;;;;;;18.10;8.43;;;;;;;16.64;84.81;100751.13;5027086;28;20050;-77
2023/10/11 07:14:19;;;;;;;18.50;9.10;;;;;;;16.95;84.14;100750.75;5039246;28;20053;-77
2023/10/11 07:16:47;;;;;;;15.70;8.35;;;;;;;17.43;82.20;100754.22;5037831;28;20563;-78
2023/10/11 07:19:15;;;;;;;14.68;8.13;;;;;;;17.32;81.04;100738.09;5030230;28;20397;-77
2023/10/11 07:24:33;;;;;;;17.33;8.00;;;;;;;17.84;80.00;100748.06;5040054;28;20049;-77
2023/10/11 07:27:08;;;;;;;16.52;8.05;;;;;;;17.60;79.78;100736.16;5040333;28;20391;-77
2023/10/11 07:29:36;;;;;;;17.17;8.50;;;;;;;17.41;81.39;100750.97;5014476;28;20163;-78
2023/10/11 07:32:02;;;;;;;21.77;7.82;;;;;;;17.79;81.35;100739.91;5035483;28;20044;-77
2023/10/11 07:34:29;;;;;;;18.27;8.80;;;;;;;18.20;79.83;100729.97;5016630;28;20050;-77
2023/10/11 07:36:57;;;;;;;22.15;8.98;;;;;;;18.22;79.05;100730.59;5034043;28;20091;-78
2023/10/11 07:39:26;;;;;;;16.60;7.32;;;;;;;18.71;77.69;100718.75;5018858;28;20081;-78
2023/10/11 07:42:00;;;;;;;14.77;8.02;;;;;;;19.07;76.61;100725.38;5040260;28;20054;-79
2023/10/11 07:44:29;;;;;;;17.38;8.15;;;;;;;18.87;76.26;100725.47;5033376;28;20049;-79
2023/10/11 07:46:56;;;;;;;19.90;7.70;;;;;;;18.83;76.19;100722.41;5041144;28;20415;-78
2023/10/11 07:49:23;;;;;;;13.43;7.28;;;;;;;18.93;76.28;100721.94;5019673;28;20219;-79
2023/10/11 07:51:52;;;;;;;14.38;7.88;;;;;;;18.66;76.76;100731.81;5027684;28;20124;-78
2023/10/11 07:54:21;;;;;;;13.75;7.65;;;;;;;19.20;76.33;100735.94;5033935;28;20072;-77
2023/10/11 07:56:49;;;;;;;15.95;7.28;;;;;;;19.57;74.68;100728.25;5032997;28;20055;-77
2023/10/11 07:59:16;;;;;;;17.50;8.02;;;;;;;19.43;74.46;100717.66;5033738;28;20468;-78
2023/10/11 08:01:45;;;;;;;16.00;7.95;;;;;;;19.84;74.54;100732.41;5035528;28;20073;-77
2023/10/11 08:04:12;;;;;;;17.23;7.95;;;;;;;19.52;74.14;100721.75;5041469;28;20053;-77
2023/10/11 08:06:40;;;;;;;16.73;7.70;;;;;;;20.37;73.59;100732.78;5025241;28;20111;-77
2023/10/11 08:09:07;;;;;;;14.05;7.38;;;;;;;20.70;72.49;100719.22;5032770;28;20059;-77
2023/10/11 08:11:44;;;;;;;12.25;7.40;;;;;;;20.58;72.33;100705.03;5032481;28;20085;-77
2023/10/11 08:14:15;;;;;;;14.63;6.95;;;;;;;20.82;70.58;100693.50;5033038;28;20427;-77
2023/10/11 08:16:42;;;;;;;12.45;6.55;;;;;;;21.14;71.50;100707.47;5028804;28;20044;-77
2023/10/11 08:19:11;;;;;;;12.10;6.57;;;;;;;20.91;69.51;100687.91;5028361;28;20109;-77
2023/10/11 08:21:38;;;;;;;17.98;7.53;;;;;;;21.32;69.53;100701.31;5041745;28;20446;-78
2023/10/11 08:24:06;;;;;;;10.68;6.88;;;;;;;21.16;68.39;100683.31;5040846;28;20208;-77
2023/10/11 08:26:42;;;;;;;15.52;7.18;;;;;;;21.48;68.58;100695.38;5040627;28;20045;-77
2023/10/11 08:29:17;;;;;;;15.27;6.50;;;;;;;21.18;68.56;100681.22;5039889;28;20060;-78
2023/10/11 08:31:44;;;;;;;13.23;6.97;;;;;;;21.15;68.16;100695.81;5026125;28;20144;-79
2023/10/11 08:34:14;;;;;;;15.27;6.88;;;;;;;21.06;68.95;100706.97;5042271;28;20428;-78
2023/10/11 08:36:42;;;;;;;18.88;7.75;;;;;;;20.42;69.98;100708.25;5025621;28;20558;-76
2023/10/11 08:39:13;;;;;;;19.75;7.50;;;;;;;20.34;70.74;100714.63;5033545;28;20049;-77
2023/10/11 08:41:43;;;;;;;14.82;7.15;;;;;;;20.61;70.18;100704.59;5041788;28;20053;-77
2023/10/11 08:44:20;;;;;;;14.35;6.82;;;;;;;21.05;69.72;100711.47;5040467;28;20052;-77
2023/10/11 08:46:49;;;;;;;16.52;7.80;;;;;;;20.87;69.02;100704.28;5030686;28;20117;-77
2023/10/11 08:49:17;;;;;;;12.25;6.35;;;;;;;21.45;69.53;100727.78;5022526;28;20045;-78
2023/10/11 08:51:44;;;;;;;15.45;7.18;;;;;;;21.47;68.21;100707.06;5041461;28;20114;-76
2023/10/11 08:54:12;;;;;;;13.60;7.30;;;;;;;20.79;68.21;100709.13;5033119;28;20053;-78
2023/10/11 08:56:40;;;;;;;16.10;7.15;;;;;;;20.78;68.26;100705.66;5037795;28;20420;-78
2023/10/11 08:59:06;;;;;;;15.65;7.00;;;;;;;20.98;68.20;100712.56;5029645;28;20062;-79
2023/10/11 09:01:38;;;;;;;14.30;7.30;;;;;;;21.29;68.37;100730.25;5034100;28;20096;-78
2023/10/11 09:04:06;;;;;;;14.20;6.53;;;;;;;21.35;67.67;100724.03;5032900;28;20053;-78
2023/10/11 09:06:36;;;;;;;12.60;6.68;;;;;;;21.28;69.37;100740.06;5031205;28;20318;-78
2023/10/11 09:09:04;;;;;;;13.73;6.90;;;;;;;21.58;69.29;100747.28;5013359;28;20050;-78
2023/10/11 09:11:31;;;;;;;15.05;7.50;;;;;;;21.48;69.77;100753.94;5034420;28;20069;-78
2023/10/11 09:14:12;;;;;;;12.90;6.13;;;;;;;21.55;69.25;100739.75;5038905;28;20520;-79
2023/10/11 09:16:41;;;;;;;16.70;7.18;;;;;;;21.71;69.35;100733.78;5041719;28;20499;-78
2023/10/11 09:19:10;;;;;;;14.75;7.38;;;;;;;21.81;68.92;100742.84;5041562;28;20080;-78
2023/10/11 09:21:36;;;;;;;13.38;6.38;;;;;;;21.93;66.63;100713.56;5034049;28;20141;-78
2023/10/11 09:24:04;;;;;;;9.45;5.70;;;;;;;22.01;65.18;100715.94;5034901;28;20578;-78
2023/10/11 09:26:35;;;;;;;13.07;5.65;;;;;;;22.25;64.12;100699.97;5034851;28;20054;-78
2023/10/11 09:29:04;;;;;;;12.55;5.95;;;;;;;22.48;64.11;100715.97;5031852;28;20057;-78
2023/10/11 09:31:31;;;;;;;14.65;6.30;;;;;;;22.60;63.87;100700.78;5029941;28;20083;-77
2023/10/11 09:34:02;;;;;;;10.85;5.85;;;;;;;22.63;62.61;100699.50;5026820;28;20064;-78
2023/10/11 09:36:29;;;;;;;13.25;6.25;;;;;;;22.62;62.24;100689.88;5043075;28;20053;-78
2023/10/11 09:38:57;;;;;;;12.60;5.93;;;;;;;22.73;62.29;100702.38;5034887;28;20042;-78
2023/10/11 09:41:25;;;;;;;10.05;5.95;;;;;;;22.79;62.23;100701.47;5042540;28;20445;-78
2023/10/11 09:43:57;;;;;;;13.57;6.75;;;;;;;22.80;60.94;100682.56;5038911;28;20060;-78
2023/10/11 09:46:29;;;;;;;18.33;6.07;;;;;;;22.86;60.76;100696.00;5043908;28;20056;-77
2023/10/11 09:48:56;;;;;;;16.95;6.63;;;;;;;23.05;60.02;100694.81;5033138;28;20045;-78
2023/10/11 09:51:25;;;;;;;12.50;5.85;;;;;;;22.99;59.93;100696.56;5033618;28;20053;-77
2023/10/11 09:53:53;;;;;;;8.70;5.65;;;;;;;23.15;59.99;100705.69;5043542;28;20545;-78
2023/10/11 09:56:37;;;;;;;13.93;5.88;;;;;;;23.16;59.75;100701.97;5034867;28;20409;-78
2023/10/11 09:59:22;;;;;;;22.08;6.22;;;;;;;23.09;59.22;100683.44;5060434;22;20084;-86
2023/10/11 10:01:57;;;;;;;12.35;5.78;;;;;;;23.16;59.16;100699.28;5036709;28;20059;-85
2023/10/11 10:04:53;;;;;;;13.00;6.25;;;;;;;23.30;59.19;100707.84;5047319;28;20049;-85
2023/10/11 10:07:25;;;;;;;14.73;6.70;;;;;;;23.37;59.22;100712.00;5036025;28;20133;-85
2023/10/11 10:09:53;;;;;;;14.70;5.75;;;;;;;23.50;59.52;100711.72;5040829;28;20123;-86
2023/10/11 10:12:21;;;;;;;12.02;6.28;;;;;;;23.48;59.48;100716.47;5038217;28;20077;-85
2023/10/11 10:14:53;;;;;;;9.57;5.85;;;;;;;23.54;59.06;100719.28;5031352;28;20068;-84
2023/10/11 10:17:20;;;;;;;16.88;5.93;;;;;;;23.56;58.86;100718.00;5028371;28;20049;-85
2023/10/11 10:19:47;;;;;;;13.10;6.00;;;;;;;23.52;57.90;100705.31;5030122;28;20076;-83
2023/10/11 10:22:22;;;;;;;11.00;6.00;;;;;;;23.54;58.22;100708.59;5045275;28;20080;-83
2023/10/11 10:24:54;;;;;;;14.88;5.95;;;;;;;23.64;57.86;100706.09;5046057;28;20131;-83
2023/10/11 10:27:46;;;;;;;9.27;5.50;;;;;;;23.62;58.06;100694.84;5037340;28;20053;-83
2023/10/11 10:30:21;;;;;;;14.25;5.90;;;;;;;23.61;57.88;100701.25;5031450;28;20053;-84
2023/10/11 10:33:19;;;;;;;11.07;5.82;;;;;;;23.71;58.24;100704.06;5039557;28;20508;-87
2023/10/11 10:35:48;;;;;;;16.38;5.82;;;;;;;23.84;58.69;100703.78;5032157;28;20050;-86
2023/10/11 10:38:16;;;;;;;13.07;5.60;;;;;;;24.09;58.01;100690.03;5033516;28;20270;-85
2023/10/11 10:40:45;;;;;;;13.18;5.97;;;;;;;24.17;58.23;100684.25;5045094;28;20458;-86
2023/10/11 10:43:20;;;;;;;11.43;5.95;;;;;;;24.34;57.43;100681.59;5037066;28;20065;-85
2023/10/11 10:45:48;;;;;;;11.00;5.57;;;;;;;24.49;57.23;100684.50;5038640;28;20053;-86
2023/10/11 10:48:16;;;;;;;14.77;5.65;;;;;;;24.48;57.20;100685.56;5044647;28;20041;-82
2023/10/11 10:51:04;;;;;;;11.68;5.88;;;;;;;24.67;56.82;100683.38;5044086;28;20132;-85
2023/10/11 10:53:40;;;;;;;14.15;6.20;;;;;;;24.72;57.07;100673.56;5037111;28;20060;-87
2023/10/11 10:56:19;;;;;;;13.00;5.97;;;;;;;24.69;56.45;100676.72;5036930;28;20053;-86
2023/10/11 10:58:46;;;;;;;16.75;6.20;;;;;;;24.66;56.55;100674.53;5030929;28;20056;-85
2023/10/11 11:01:11;;;;;;;16.85;5.78;;;;;;;24.61;57.09;100666.44;5039239;28;20061;-86
2023/10/11 11:03:41;;;;;;;16.63;6.18;;;;;;;24.68;56.88;100667.06;5039884;28;20123;-86
2023/10/11 11:06:11;;;;;;;16.58;6.18;;;;;;;24.62;56.20;100656.56;5031553;28;20504;-84
2023/10/11 11:08:39;;;;;;;12.00;6.25;;;;;;;24.60;56.36;100647.97;5042723;28;20056;-85
2023/10/11 11:11:20;;;;;;;15.52;6.80;;;;;;;24.77;56.16;100646.88;5043065;28;20084;-82
2023/10/11 11:13:50;;;;;;;13.98;6.28;;;;;;;24.77;56.68;100652.22;5042037;28;20053;-82
2023/10/11 11:16:17;;;;;;;18.15;6.78;;;;;;;25.04;56.49;100652.31;5035052;28;20108;-84
2023/10/11 11:18:44;;;;;;;12.27;6.45;;;;;;;25.10;56.51;100648.59;5034575;28;20042;-85
2023/10/11 11:21:20;;;;;;;24.88;6.20;;;;;;;25.08;55.35;100640.00;5029519;28;20056;-85
2023/10/11 11:23:49;;;;;;;14.15;5.68;;;;;;;25.06;54.83;100635.97;5033926;28;20060;-84
2023/10/11 11:26:16;;;;;;;12.43;5.75;;;;;;;25.09;54.82;100641.63;5034058;28;20056;-84
2023/10/11 11:28:44;;;;;;;18.13;6.28;;;;;;;24.94;54.15;100643.31;5037816;28;20064;-82
2023/10/11 11:31:13;;;;;;;15.20;6.40;;;;;;;24.80;54.55;100637.53;5038475;28;20136;-81
2023/10/11 11:34:04;;;;;;;14.30;6.05;;;;;;;24.65;54.34;100619.41;5042019;28;20065;-83
2023/10/11 11:36:30;;;;;;;11.02;5.93;;;;;;;24.61;54.66;100631.66;5042448;28;20113;-84
2023/10/11 11:39:16;;;;;;;14.48;6.65;;;;;;;24.47;55.07;100633.13;5042602;28;20046;-83
2023/10/11 11:41:47;;;;;;;15.60;6.30;;;;;;;24.36;55.60;100621.47;5036258;28;20053;-85
2023/10/11 11:44:19;;;;;;;13.40;6.38;;;;;;;24.29;56.14;100626.19;5045869;28;20046;-82
2023/10/11 11:46:48;;;;;;;13.70;6.03;;;;;;;24.15;56.18;100614.97;5040563;28;20077;-79
2023/10/11 11:49:17;;;;;;;14.73;6.90;;;;;;;24.23;55.98;100604.94;5049218;28;20050;-82
2023/10/11 11:51:43;;;;;;;16.90;6.18;;;;;;;24.39;55.99;100609.47;5052013;28;20049;-84
2023/10/11 11:54:16;;;;;;;17.35;6.03;;;;;;;24.52;55.58;100603.75;5043772;28;20073;-83